sensor_id;sensor_type;location;lat;lon;timestamp;temperature;humidity
1996;DHT22;38556;47.068;15.408;2023-01-16T00:00:00;6.70;99.90
1996;DHT22;38556;47.068;15.408;2023-01-16T00:02:27;6.70;99.90
1996;DHT22;38556;47.068;15.408;2023-01-16T00:04:54;6.80;99.90
1996;DHT22;38556;47.068;15.408;2023-01-16T00:07:21;6.70;99.90
1996;DHT22;38556;47.068;15.408;2023-01-16T00:09:49;6.70;99.90
1996;DHT22;38556;47.068;15.408;2023-01-16T00:12:17;6.70;99.90
1996;DHT22;38556;47.068;15.408;2023-01-16T00:14:45;6.70;99.90
1996;DHT22;38556;47.068;15.408;2023-01-16T00:17:12;6.70;99.90
1996;DHT22;38556;47.068;15.408;2023-01-16T00:19:40;6.80;99.90
1996;DHT22;38556;47.068;15.408;2023-01-16T00:22:07;6.80;99.90
1996;DHT22;38556;47.068;15.408;2023-01-16T00:24:35;6.70;99.90
1996;DHT22;38556;47.068;15.408;2023-01-16T00:27:02;6.40;99.90
1996;DHT22;38556;47.068;15.408;2023-01-16T00:29:31;6.30;99.90
1996;DHT22;38556;47.068;15.408;2023-01-16T00:31:58;6.40;99.90
1996;DHT22;38556;47.068;15.408;2023-01-16T00:34:26;6.40;99.90
1996;DHT22;38556;47.068;15.408;2023-01-16T00:36:53;6.40;99.90
1996;DHT22;38556;47.068;15.408;2023-01-16T00:39:20;6.50;99.90
1996;DHT22;38556;47.068;15.408;2023-01-16T00:41:47;6.60;99.90
1996;DHT22;38556;47.068;15.408;2023-01-16T00:44:15;6.60;99.90
1996;DHT22;38556;47.068;15.408;2023-01-16T00:46:44;6.70;99.90
1996;DHT22;38556;47.068;15.408;2023-01-16T00:49:12;6.80;99.90
1996;DHT22;38556;47.068;15.408;2023-01-16T00:54:06;6.90;99.90
1996;DHT22;38556;47.068;15.408;2023-01-16T00:56:34;6.90;99.90
1996;DHT22;38556;47.068;15.408;2023-01-16T01:01:29;7.00;99.90
1996;DHT22;38556;47.068;15.408;2023-01-16T01:03:59;7.00;99.90
1996;DHT22;38556;47.068;15.408;2023-01-16T01:06:27;7.00;99.90
1996;DHT22;38556;47.068;15.408;2023-01-16T01:11:22;7.00;99.90
1996;DHT22;38556;47.068;15.408;2023-01-16T01:13:50;7.00;99.90
1996;DHT22;38556;47.068;15.408;2023-01-16T01:16:18;7.10;99.90
1996;DHT22;38556;47.068;15.408;2023-01-16T01:18:45;7.10;99.90
1996;DHT22;38556;47.068;15.408;2023-01-16T01:21:14;7.10;99.90
1996;DHT22;38556;47.068;15.408;2023-01-16T01:23:41;7.00;99.90
1996;DHT22;38556;47.068;15.408;2023-01-16T01:26:10;6.90;99.90
1996;DHT22;38556;47.068;15.408;2023-01-16T01:28:38;6.90;99.90
1996;DHT22;38556;47.068;15.408;2023-01-16T01:31:07;6.90;99.90
1996;DHT22;38556;47.068;15.408;2023-01-16T01:33:35;6.90;99.90
1996;DHT22;38556;47.068;15.408;2023-01-16T01:36:03;6.70;99.90
1996;DHT22;38556;47.068;15.408;2023-01-16T01:38:32;6.70;99.90
1996;DHT22;38556;47.068;15.408;2023-01-16T01:41:00;6.20;99.90
1996;DHT22;38556;47.068;15.408;2023-01-16T01:43:42;6.10;99.90
1996;DHT22;38556;47.068;15.408;2023-01-16T01:46:18;6.20;99.90
1996;DHT22;38556;47.068;15.408;2023-01-16T01:48:48;6.30;99.90
1996;DHT22;38556;47.068;15.408;2023-01-16T01:51:19;6.40;99.90
1996;DHT22;38556;47.068;15.408;2023-01-16T01:53:53;6.30;99.90
1996;DHT22;38556;47.068;15.408;2023-01-16T01:56:26;6.20;99.90
1996;DHT22;38556;47.068;15.408;2023-01-16T01:58:57;6.20;99.90
1996;DHT22;38556;47.068;15.408;2023-01-16T02:01:27;6.00;99.90
1996;DHT22;38556;47.068;15.408;2023-01-16T02:03:58;5.90;99.90
1996;DHT22;38556;47.068;15.408;2023-01-16T02:06:44;5.90;99.90
1996;DHT22;38556;47.068;15.408;2023-01-16T02:09:14;5.90;99.90
1996;DHT22;38556;47.068;15.408;2023-01-16T02:11:48;6.00;99.90
1996;DHT22;38556;47.068;15.408;2023-01-16T02:14:16;6.10;99.90
1996;DHT22;38556;47.068;15.408;2023-01-16T02:16:45;6.10;99.90
1996;DHT22;38556;47.068;15.408;2023-01-16T02:19:37;6.40;99.90
1996;DHT22;38556;47.068;15.408;2023-01-16T02:22:45;6.50;99.90
1996;DHT22;38556;47.068;15.408;2023-01-16T02:25:39;6.50;99.90
1996;DHT22;38556;47.068;15.408;2023-01-16T02:28:40;6.50;99.90
1996;DHT22;38556;47.068;15.408;2023-01-16T02:31:33;6.50;99.90
1996;DHT22;38556;47.068;15.408;2023-01-16T02:34:15;6.50;99.90
1996;DHT22;38556;47.068;15.408;2023-01-16T02:36:52;6.50;99.90
1996;DHT22;38556;47.068;15.408;2023-01-16T02:39:29;6.50;99.90
1996;DHT22;38556;47.068;15.408;2023-01-16T02:42:12;6.30;99.90
1996;DHT22;38556;47.068;15.408;2023-01-16T02:44:48;6.20;99.90
1996;DHT22;38556;47.068;15.408;2023-01-16T02:47:24;6.20;99.90
1996;DHT22;38556;47.068;15.408;2023-01-16T02:49:57;6.10;99.90
1996;DHT22;38556;47.068;15.408;2023-01-16T02:52:31;6.20;99.90
1996;DHT22;38556;47.068;15.408;2023-01-16T02:55:03;6.10;99.90
1996;DHT22;38556;47.068;15.408;2023-01-16T02:57:37;4.90;99.90
1996;DHT22;38556;47.068;15.408;2023-01-16T03:00:07;6.00;99.90
1996;DHT22;38556;47.068;15.408;2023-01-16T03:02:37;6.00;99.90
1996;DHT22;38556;47.068;15.408;2023-01-16T03:05:05;6.00;99.90
1996;DHT22;38556;47.068;15.408;2023-01-16T03:11:03;6.00;99.90
1996;DHT22;38556;47.068;15.408;2023-01-16T03:13:55;6.10;99.90
1996;DHT22;38556;47.068;15.408;2023-01-16T03:16:28;6.00;99.90
1996;DHT22;38556;47.068;15.408;2023-01-16T03:21:42;5.80;99.90
1996;DHT22;38556;47.068;15.408;2023-01-16T03:24:18;5.80;99.90
1996;DHT22;38556;47.068;15.408;2023-01-16T03:26:52;5.70;99.90
1996;DHT22;38556;47.068;15.408;2023-01-16T03:29:29;5.60;99.90
1996;DHT22;38556;47.068;15.408;2023-01-16T03:32:03;5.70;99.90
1996;DHT22;38556;47.068;15.408;2023-01-16T03:34:38;5.60;99.90
1996;DHT22;38556;47.068;15.408;2023-01-16T03:37:10;5.70;99.90
1996;DHT22;38556;47.068;15.408;2023-01-16T03:39:43;5.60;99.90
1996;DHT22;38556;47.068;15.408;2023-01-16T03:42:15;7.80;99.90
1996;DHT22;38556;47.068;15.408;2023-01-16T03:44:50;5.60;99.90
1996;DHT22;38556;47.068;15.408;2023-01-16T03:47:22;5.60;99.90
1996;DHT22;38556;47.068;15.408;2023-01-16T03:49:56;5.60;99.90
1996;DHT22;38556;47.068;15.408;2023-01-16T03:52:31;5.60;99.90
1996;DHT22;38556;47.068;15.408;2023-01-16T03:55:05;5.60;99.90
1996;DHT22;38556;47.068;15.408;2023-01-16T03:57:36;5.50;99.90
1996;DHT22;38556;47.068;15.408;2023-01-16T04:00:06;5.40;99.90
1996;DHT22;38556;47.068;15.408;2023-01-16T04:02:40;5.40;99.90
1996;DHT22;38556;47.068;15.408;2023-01-16T04:05:15;5.40;99.90
1996;DHT22;38556;47.068;15.408;2023-01-16T04:07:45;5.30;99.90
1996;DHT22;38556;47.068;15.408;2023-01-16T04:10:17;5.20;99.90
1996;DHT22;38556;47.068;15.408;2023-01-16T04:12:48;5.20;99.90
1996;DHT22;38556;47.068;15.408;2023-01-16T04:15:18;5.20;99.90
1996;DHT22;38556;47.068;15.408;2023-01-16T04:17:46;5.20;99.90
1996;DHT22;38556;47.068;15.408;2023-01-16T04:20:16;5.00;99.90
1996;DHT22;38556;47.068;15.408;2023-01-16T04:22:47;5.00;99.90
1996;DHT22;38556;47.068;15.408;2023-01-16T04:25:16;5.00;99.90
1996;DHT22;38556;47.068;15.408;2023-01-16T04:27:43;5.00;99.90
1996;DHT22;38556;47.068;15.408;2023-01-16T04:30:11;5.00;99.90
1996;DHT22;38556;47.068;15.408;2023-01-16T04:32:38;5.00;99.90
1996;DHT22;38556;47.068;15.408;2023-01-16T04:35:07;4.90;99.90
1996;DHT22;38556;47.068;15.408;2023-01-16T04:37:35;4.80;99.90
1996;DHT22;38556;47.068;15.408;2023-01-16T04:40:04;4.70;99.90
1996;DHT22;38556;47.068;15.408;2023-01-16T04:42:34;4.60;99.90
1996;DHT22;38556;47.068;15.408;2023-01-16T04:45:02;4.40;99.90
1996;DHT22;38556;47.068;15.408;2023-01-16T04:47:29;4.50;99.90
1996;DHT22;38556;47.068;15.408;2023-01-16T04:49:56;4.50;99.90
1996;DHT22;38556;47.068;15.408;2023-01-16T04:52:24;4.50;99.90
1996;DHT22;38556;47.068;15.408;2023-01-16T04:54:53;4.50;99.90
1996;DHT22;38556;47.068;15.408;2023-01-16T04:59:48;4.40;99.90
1996;DHT22;38556;47.068;15.408;2023-01-16T05:02:15;4.30;99.90
1996;DHT22;38556;47.068;15.408;2023-01-16T05:04:42;4.40;99.90
1996;DHT22;38556;47.068;15.408;2023-01-16T05:07:10;4.30;99.90
1996;DHT22;38556;47.068;15.408;2023-01-16T05:09:37;4.10;99.90
1996;DHT22;38556;47.068;15.408;2023-01-16T05:12:06;3.90;99.90
1996;DHT22;38556;47.068;15.408;2023-01-16T05:14:34;3.80;99.90
1996;DHT22;38556;47.068;15.408;2023-01-16T05:17:01;3.70;99.90
1996;DHT22;38556;47.068;15.408;2023-01-16T05:19:28;3.70;99.90
1996;DHT22;38556;47.068;15.408;2023-01-16T05:21:55;3.80;99.90
1996;DHT22;38556;47.068;15.408;2023-01-16T05:24:23;3.70;99.90
1996;DHT22;38556;47.068;15.408;2023-01-16T05:26:50;3.50;99.90
1996;DHT22;38556;47.068;15.408;2023-01-16T05:29:19;3.50;99.90
1996;DHT22;38556;47.068;15.408;2023-01-16T05:31:46;3.50;99.90
1996;DHT22;38556;47.068;15.408;2023-01-16T05:34:14;3.40;99.90
1996;DHT22;38556;47.068;15.408;2023-01-16T05:36:41;3.60;99.90
1996;DHT22;38556;47.068;15.408;2023-01-16T05:39:08;3.50;99.90
1996;DHT22;38556;47.068;15.408;2023-01-16T05:41:36;3.50;99.90
1996;DHT22;38556;47.068;15.408;2023-01-16T05:44:04;3.70;99.90
1996;DHT22;38556;47.068;15.408;2023-01-16T05:46:33;3.80;99.90
1996;DHT22;38556;47.068;15.408;2023-01-16T05:49:00;3.90;99.90
1996;DHT22;38556;47.068;15.408;2023-01-16T05:51:27;3.90;99.90
1996;DHT22;38556;47.068;15.408;2023-01-16T05:56:23;4.00;99.90
1996;DHT22;38556;47.068;15.408;2023-01-16T05:58:51;4.10;99.90
1996;DHT22;38556;47.068;15.408;2023-01-16T06:01:18;4.00;99.90
1996;DHT22;38556;47.068;15.408;2023-01-16T06:03:47;4.10;99.90
1996;DHT22;38556;47.068;15.408;2023-01-16T06:06:15;4.10;99.90
1996;DHT22;38556;47.068;15.408;2023-01-16T06:08:42;4.10;99.90
1996;DHT22;38556;47.068;15.408;2023-01-16T06:11:09;4.20;99.90
1996;DHT22;38556;47.068;15.408;2023-01-16T06:13:36;4.20;99.90
1996;DHT22;38556;47.068;15.408;2023-01-16T06:16:04;4.20;99.90
1996;DHT22;38556;47.068;15.408;2023-01-16T06:18:31;4.20;99.90
1996;DHT22;38556;47.068;15.408;2023-01-16T06:21:00;4.20;99.90
1996;DHT22;38556;47.068;15.408;2023-01-16T06:23:28;4.20;99.90
1996;DHT22;38556;47.068;15.408;2023-01-16T06:25:56;4.20;99.90
1996;DHT22;38556;47.068;15.408;2023-01-16T06:28:23;4.20;99.90
1996;DHT22;38556;47.068;15.408;2023-01-16T06:30:51;4.30;99.90
1996;DHT22;38556;47.068;15.408;2023-01-16T06:33:19;4.40;99.90
1996;DHT22;38556;47.068;15.408;2023-01-16T06:35:46;4.50;99.90
1996;DHT22;38556;47.068;15.408;2023-01-16T06:38:16;4.50;99.90
1996;DHT22;38556;47.068;15.408;2023-01-16T06:40:44;4.50;99.90
1996;DHT22;38556;47.068;15.408;2023-01-16T06:43:11;4.60;99.90
1996;DHT22;38556;47.068;15.408;2023-01-16T06:45:39;4.60;99.90
1996;DHT22;38556;47.068;15.408;2023-01-16T06:48:06;4.70;99.90
1996;DHT22;38556;47.068;15.408;2023-01-16T06:50:34;4.70;99.90
1996;DHT22;38556;47.068;15.408;2023-01-16T06:53:01;4.70;99.90
1996;DHT22;38556;47.068;15.408;2023-01-16T06:55:30;4.60;99.90
1996;DHT22;38556;47.068;15.408;2023-01-16T06:57:57;4.60;99.90
1996;DHT22;38556;47.068;15.408;2023-01-16T07:00:25;4.60;99.90
1996;DHT22;38556;47.068;15.408;2023-01-16T07:02:53;4.60;99.90
1996;DHT22;38556;47.068;15.408;2023-01-16T07:05:22;4.60;99.90
1996;DHT22;38556;47.068;15.408;2023-01-16T07:07:50;4.50;99.90
1996;DHT22;38556;47.068;15.408;2023-01-16T07:10:18;4.30;99.90
1996;DHT22;38556;47.068;15.408;2023-01-16T07:12:47;4.20;99.90
1996;DHT22;38556;47.068;15.408;2023-01-16T07:15:15;4.20;99.90
1996;DHT22;38556;47.068;15.408;2023-01-16T07:18:01;4.30;99.90
1996;DHT22;38556;47.068;15.408;2023-01-16T07:20:50;4.30;99.90
1996;DHT22;38556;47.068;15.408;2023-01-16T07:23:37;4.30;99.90
1996;DHT22;38556;47.068;15.408;2023-01-16T07:26:06;4.40;99.90
1996;DHT22;38556;47.068;15.408;2023-01-16T07:28:35;4.40;99.90
1996;DHT22;38556;47.068;15.408;2023-01-16T07:31:06;4.40;99.90
1996;DHT22;38556;47.068;15.408;2023-01-16T07:33:33;4.30;99.90
1996;DHT22;38556;47.068;15.408;2023-01-16T07:36:01;4.30;99.90
1996;DHT22;38556;47.068;15.408;2023-01-16T07:38:28;4.30;99.90
1996;DHT22;38556;47.068;15.408;2023-01-16T07:40:56;4.30;99.90
1996;DHT22;38556;47.068;15.408;2023-01-16T07:43:23;4.30;99.90
1996;DHT22;38556;47.068;15.408;2023-01-16T07:45:52;4.40;99.90
1996;DHT22;38556;47.068;15.408;2023-01-16T07:48:19;4.30;99.90
1996;DHT22;38556;47.068;15.408;2023-01-16T07:50:50;4.30;99.90
1996;DHT22;38556;47.068;15.408;2023-01-16T07:53:18;4.30;99.90
1996;DHT22;38556;47.068;15.408;2023-01-16T07:55:48;4.20;99.90
1996;DHT22;38556;47.068;15.408;2023-01-16T07:58:16;4.20;99.90
1996;DHT22;38556;47.068;15.408;2023-01-16T08:00:44;4.20;99.90
1996;DHT22;38556;47.068;15.408;2023-01-16T08:03:13;4.30;99.90
1996;DHT22;38556;47.068;15.408;2023-01-16T08:05:41;2.60;99.90
1996;DHT22;38556;47.068;15.408;2023-01-16T08:08:10;4.20;99.90
1996;DHT22;38556;47.068;15.408;2023-01-16T08:10:38;4.20;99.90
1996;DHT22;38556;47.068;15.408;2023-01-16T08:13:06;4.30;99.90
1996;DHT22;38556;47.068;15.408;2023-01-16T08:15:33;4.40;99.90
1996;DHT22;38556;47.068;15.408;2023-01-16T08:18:00;4.20;99.90
1996;DHT22;38556;47.068;15.408;2023-01-16T08:20:29;4.20;99.90
1996;DHT22;38556;47.068;15.408;2023-01-16T08:22:56;4.20;99.90
1996;DHT22;38556;47.068;15.408;2023-01-16T08:25:25;4.30;99.90
1996;DHT22;38556;47.068;15.408;2023-01-16T08:27:53;4.20;99.90
1996;DHT22;38556;47.068;15.408;2023-01-16T08:30:20;4.30;99.90
1996;DHT22;38556;47.068;15.408;2023-01-16T08:32:48;4.30;99.90
1996;DHT22;38556;47.068;15.408;2023-01-16T08:35:15;4.30;99.90
1996;DHT22;38556;47.068;15.408;2023-01-16T08:37:49;4.30;99.90
1996;DHT22;38556;47.068;15.408;2023-01-16T08:40:17;4.30;99.90
1996;DHT22;38556;47.068;15.408;2023-01-16T08:42:44;4.40;99.90
1996;DHT22;38556;47.068;15.408;2023-01-16T08:45:30;4.40;99.90
1996;DHT22;38556;47.068;15.408;2023-01-16T08:48:21;4.40;99.90
1996;DHT22;38556;47.068;15.408;2023-01-16T08:51:09;4.50;99.90
1996;DHT22;38556;47.068;15.408;2023-01-16T08:53:51;4.40;99.90
1996;DHT22;38556;47.068;15.408;2023-01-16T08:58:47;4.50;99.90
1996;DHT22;38556;47.068;15.408;2023-01-16T09:01:14;4.50;99.90
1996;DHT22;38556;47.068;15.408;2023-01-16T09:03:42;4.50;99.90
1996;DHT22;38556;47.068;15.408;2023-01-16T09:06:09;4.50;99.90
1996;DHT22;38556;47.068;15.408;2023-01-16T09:08:37;4.50;99.90
1996;DHT22;38556;47.068;15.408;2023-01-16T09:11:06;4.40;99.90
1996;DHT22;38556;47.068;15.408;2023-01-16T09:13:59;4.50;99.90
1996;DHT22;38556;47.068;15.408;2023-01-16T09:16:27;4.50;99.90
1996;DHT22;38556;47.068;15.408;2023-01-16T09:18:54;4.40;99.90
1996;DHT22;38556;47.068;15.408;2023-01-16T09:21:22;4.40;99.90
1996;DHT22;38556;47.068;15.408;2023-01-16T09:23:51;4.40;99.90
1996;DHT22;38556;47.068;15.408;2023-01-16T09:26:19;4.40;99.90
1996;DHT22;38556;47.068;15.408;2023-01-16T09:28:47;4.50;99.90
1996;DHT22;38556;47.068;15.408;2023-01-16T09:31:15;4.50;99.90
1996;DHT22;38556;47.068;15.408;2023-01-16T09:33:45;4.60;99.90
1996;DHT22;38556;47.068;15.408;2023-01-16T09:36:13;4.60;99.90
1996;DHT22;38556;47.068;15.408;2023-01-16T09:38:40;4.60;99.90
1996;DHT22;38556;47.068;15.408;2023-01-16T09:41:13;4.60;99.90
1996;DHT22;38556;47.068;15.408;2023-01-16T09:44:04;4.50;99.90
1996;DHT22;38556;47.068;15.408;2023-01-16T09:46:35;4.40;99.90
1996;DHT22;38556;47.068;15.408;2023-01-16T09:49:10;4.50;99.90
1996;DHT22;38556;47.068;15.408;2023-01-16T09:51:45;4.50;99.90
1996;DHT22;38556;47.068;15.408;2023-01-16T09:54:39;4.50;99.90
1996;DHT22;38556;47.068;15.408;2023-01-16T09:57:26;4.60;99.90
1996;DHT22;38556;47.068;15.408;2023-01-16T10:00:15;4.60;99.90
1996;DHT22;38556;47.068;15.408;2023-01-16T10:02:44;4.60;99.90
1996;DHT22;38556;47.068;15.408;2023-01-16T10:05:11;4.60;99.90
1996;DHT22;38556;47.068;15.408;2023-01-16T10:07:47;4.60;99.90
1996;DHT22;38556;47.068;15.408;2023-01-16T10:10:28;4.60;99.90
1996;DHT22;38556;47.068;15.408;2023-01-16T10:13:07;4.60;99.90
1996;DHT22;38556;47.068;15.408;2023-01-16T10:15:46;4.60;99.90
1996;DHT22;38556;47.068;15.408;2023-01-16T10:18:26;4.60;99.90
1996;DHT22;38556;47.068;15.408;2023-01-16T10:21:11;4.60;99.90
1996;DHT22;38556;47.068;15.408;2023-01-16T10:23:49;4.60;99.90
1996;DHT22;38556;47.068;15.408;2023-01-16T10:26:24;4.60;99.90
1996;DHT22;38556;47.068;15.408;2023-01-16T10:29:01;4.60;99.90
1996;DHT22;38556;47.068;15.408;2023-01-16T10:31:33;4.70;99.90
1996;DHT22;38556;47.068;15.408;2023-01-16T10:34:07;4.70;99.90
1996;DHT22;38556;47.068;15.408;2023-01-16T10:36:39;4.80;99.90
1996;DHT22;38556;47.068;15.408;2023-01-16T10:39:11;4.80;99.90
1996;DHT22;38556;47.068;15.408;2023-01-16T10:41:44;4.70;99.90
1996;DHT22;38556;47.068;15.408;2023-01-16T10:44:32;4.80;99.90
1996;DHT22;38556;47.068;15.408;2023-01-16T10:47:23;4.80;99.90
1996;DHT22;38556;47.068;15.408;2023-01-16T10:50:08;4.80;99.90
1996;DHT22;38556;47.068;15.408;2023-01-16T10:52:37;4.80;99.90
1996;DHT22;38556;47.068;15.408;2023-01-16T10:55:06;4.80;99.90
1996;DHT22;38556;47.068;15.408;2023-01-16T10:57:34;4.90;99.90
1996;DHT22;38556;47.068;15.408;2023-01-16T11:00:05;4.90;99.90
1996;DHT22;38556;47.068;15.408;2023-01-16T11:02:39;4.90;99.90
1996;DHT22;38556;47.068;15.408;2023-01-16T11:05:24;4.90;99.90
1996;DHT22;38556;47.068;15.408;2023-01-16T11:07:53;4.80;99.90
1996;DHT22;38556;47.068;15.408;2023-01-16T11:10:21;5.00;99.90
1996;DHT22;38556;47.068;15.408;2023-01-16T11:12:49;4.80;99.90
1996;DHT22;38556;47.068;15.408;2023-01-16T11:16:05;4.80;99.90
1996;DHT22;38556;47.068;15.408;2023-01-16T11:19:15;4.80;99.90
1996;DHT22;38556;47.068;15.408;2023-01-16T11:21:44;4.80;99.90
1996;DHT22;38556;47.068;15.408;2023-01-16T11:24:15;4.80;99.90
1996;DHT22;38556;47.068;15.408;2023-01-16T11:26:46;4.80;99.90
1996;DHT22;38556;47.068;15.408;2023-01-16T11:29:16;4.80;99.90
1996;DHT22;38556;47.068;15.408;2023-01-16T11:31:47;4.80;99.90
1996;DHT22;38556;47.068;15.408;2023-01-16T11:34:17;4.90;99.90
1996;DHT22;38556;47.068;15.408;2023-01-16T11:39:18;4.90;99.90
1996;DHT22;38556;47.068;15.408;2023-01-16T11:41:48;4.90;99.90
1996;DHT22;38556;47.068;15.408;2023-01-16T11:44:20;4.70;99.90
1996;DHT22;38556;47.068;15.408;2023-01-16T11:47:05;4.80;99.90
1996;DHT22;38556;47.068;15.408;2023-01-16T11:49:41;4.80;99.90
1996;DHT22;38556;47.068;15.408;2023-01-16T11:52:14;4.90;99.90
1996;DHT22;38556;47.068;15.408;2023-01-16T11:54:53;4.90;99.90
1996;DHT22;38556;47.068;15.408;2023-01-16T11:57:38;4.90;99.90
1996;DHT22;38556;47.068;15.408;2023-01-16T12:00:24;4.90;99.90
1996;DHT22;38556;47.068;15.408;2023-01-16T12:03:23;4.90;99.90
1996;DHT22;38556;47.068;15.408;2023-01-16T12:06:03;4.90;99.90
1996;DHT22;38556;47.068;15.408;2023-01-16T12:12:03;5.00;99.90
1996;DHT22;38556;47.068;15.408;2023-01-16T12:14:53;4.90;99.90
1996;DHT22;38556;47.068;15.408;2023-01-16T12:17:29;4.90;99.90
1996;DHT22;38556;47.068;15.408;2023-01-16T12:20:08;4.90;99.90
1996;DHT22;38556;47.068;15.408;2023-01-16T12:23:00;4.90;99.90
1996;DHT22;38556;47.068;15.408;2023-01-16T12:25:35;4.80;99.90
1996;DHT22;38556;47.068;15.408;2023-01-16T12:28:12;4.70;99.90
1996;DHT22;38556;47.068;15.408;2023-01-16T12:30:52;4.70;99.90
1996;DHT22;38556;47.068;15.408;2023-01-16T12:33:37;4.70;99.90
1996;DHT22;38556;47.068;15.408;2023-01-16T12:36:13;4.80;99.90
1996;DHT22;38556;47.068;15.408;2023-01-16T12:38:49;4.80;99.90
1996;DHT22;38556;47.068;15.408;2023-01-16T12:41:22;4.90;99.90
1996;DHT22;38556;47.068;15.408;2023-01-16T12:44:30;4.90;99.90
1996;DHT22;38556;47.068;15.408;2023-01-16T12:50:07;5.00;99.90
1996;DHT22;38556;47.068;15.408;2023-01-16T12:52:48;5.00;99.90
1996;DHT22;38556;47.068;15.408;2023-01-16T12:55:31;5.10;99.90
1996;DHT22;38556;47.068;15.408;2023-01-16T12:58:10;5.10;99.90
1996;DHT22;38556;47.068;15.408;2023-01-16T13:00:40;5.20;99.90
1996;DHT22;38556;47.068;15.408;2023-01-16T13:03:16;5.20;99.90
1996;DHT22;38556;47.068;15.408;2023-01-16T13:05:46;5.20;99.90
1996;DHT22;38556;47.068;15.408;2023-01-16T13:08:18;5.30;99.90
1996;DHT22;38556;47.068;15.408;2023-01-16T13:10:52;5.30;99.90
1996;DHT22;38556;47.068;15.408;2023-01-16T13:13:42;5.40;99.90
1996;DHT22;38556;47.068;15.408;2023-01-16T13:16:15;5.40;99.90
1996;DHT22;38556;47.068;15.408;2023-01-16T13:18:46;5.40;99.90
1996;DHT22;38556;47.068;15.408;2023-01-16T13:21:17;5.40;99.90
1996;DHT22;38556;47.068;15.408;2023-01-16T13:23:50;5.30;99.90
1996;DHT22;38556;47.068;15.408;2023-01-16T13:26:23;5.10;99.90
1996;DHT22;38556;47.068;15.408;2023-01-16T13:28:56;5.20;99.90
1996;DHT22;38556;47.068;15.408;2023-01-16T13:31:30;5.10;99.90
1996;DHT22;38556;47.068;15.408;2023-01-16T13:34:04;5.20;99.90
1996;DHT22;38556;47.068;15.408;2023-01-16T13:40:09;5.30;99.90
1996;DHT22;38556;47.068;15.408;2023-01-16T13:42:48;5.30;99.90
1996;DHT22;38556;47.068;15.408;2023-01-16T13:45:22;5.30;99.90
1996;DHT22;38556;47.068;15.408;2023-01-16T13:48:10;5.40;99.90
1996;DHT22;38556;47.068;15.408;2023-01-16T13:50:38;5.40;99.90
1996;DHT22;38556;47.068;15.408;2023-01-16T13:53:08;5.40;99.90
1996;DHT22;38556;47.068;15.408;2023-01-16T13:55:37;5.40;99.90
1996;DHT22;38556;47.068;15.408;2023-01-16T13:58:10;5.40;99.90
1996;DHT22;38556;47.068;15.408;2023-01-16T14:00:42;5.40;99.90
1996;DHT22;38556;47.068;15.408;2023-01-16T14:08:27;5.30;99.90
1996;DHT22;38556;47.068;15.408;2023-01-16T14:11:26;5.30;99.90
1996;DHT22;38556;47.068;15.408;2023-01-16T14:14:30;5.30;99.90
1996;DHT22;38556;47.068;15.408;2023-01-16T14:17:17;5.30;99.90
1996;DHT22;38556;47.068;15.408;2023-01-16T14:19:55;5.30;99.90
1996;DHT22;38556;47.068;15.408;2023-01-16T14:22:24;5.30;99.90
1996;DHT22;38556;47.068;15.408;2023-01-16T14:25:21;5.30;99.90
1996;DHT22;38556;47.068;15.408;2023-01-16T14:27:52;5.20;99.90
1996;DHT22;38556;47.068;15.408;2023-01-16T14:30:25;5.10;99.90
1996;DHT22;38556;47.068;15.408;2023-01-16T14:32:55;5.20;99.90
1996;DHT22;38556;47.068;15.408;2023-01-16T14:35:26;5.10;99.90
1996;DHT22;38556;47.068;15.408;2023-01-16T14:37:57;5.00;99.90
1996;DHT22;38556;47.068;15.408;2023-01-16T14:40:27;5.00;99.90
1996;DHT22;38556;47.068;15.408;2023-01-16T14:43:13;4.90;99.90
1996;DHT22;38556;47.068;15.408;2023-01-16T14:46:28;4.60;99.90
1996;DHT22;38556;47.068;15.408;2023-01-16T14:49:41;4.70;99.90
1996;DHT22;38556;47.068;15.408;2023-01-16T14:55:42;4.40;99.90
1996;DHT22;38556;47.068;15.408;2023-01-16T14:58:12;4.40;99.90
1996;DHT22;38556;47.068;15.408;2023-01-16T15:00:41;4.40;99.90
1996;DHT22;38556;47.068;15.408;2023-01-16T15:03:14;4.20;99.90
1996;DHT22;38556;47.068;15.408;2023-01-16T15:05:45;4.30;99.90
1996;DHT22;38556;47.068;15.408;2023-01-16T15:08:23;4.30;99.90
1996;DHT22;38556;47.068;15.408;2023-01-16T15:10:53;4.30;99.90
1996;DHT22;38556;47.068;15.408;2023-01-16T15:13:23;4.30;99.90
1996;DHT22;38556;47.068;15.408;2023-01-16T15:18:23;4.20;99.90
1996;DHT22;38556;47.068;15.408;2023-01-16T15:21:12;4.10;99.90
1996;DHT22;38556;47.068;15.408;2023-01-16T15:23:57;4.10;99.90
1996;DHT22;38556;47.068;15.408;2023-01-16T15:26:52;4.00;99.90
1996;DHT22;38556;47.068;15.408;2023-01-16T15:32:15;3.90;99.90
1996;DHT22;38556;47.068;15.408;2023-01-16T15:34:45;4.00;99.90
1996;DHT22;38556;47.068;15.408;2023-01-16T15:37:20;3.90;99.90
1996;DHT22;38556;47.068;15.408;2023-01-16T15:39:47;4.00;99.90
1996;DHT22;38556;47.068;15.408;2023-01-16T15:42:19;4.00;99.90
1996;DHT22;38556;47.068;15.408;2023-01-16T15:45:17;4.00;99.90
1996;DHT22;38556;47.068;15.408;2023-01-16T15:48:31;4.10;99.90
1996;DHT22;38556;47.068;15.408;2023-01-16T15:51:08;3.90;99.90
1996;DHT22;38556;47.068;15.408;2023-01-16T15:53:38;3.90;99.90
1996;DHT22;38556;47.068;15.408;2023-01-16T15:56:16;3.70;99.90
1996;DHT22;38556;47.068;15.408;2023-01-16T15:58:45;3.70;99.90
1996;DHT22;38556;47.068;15.408;2023-01-16T16:03:44;3.60;99.90
1996;DHT22;38556;47.068;15.408;2023-01-16T16:06:16;3.70;99.90
1996;DHT22;38556;47.068;15.408;2023-01-16T16:08:46;3.70;99.90
1996;DHT22;38556;47.068;15.408;2023-01-16T16:11:17;3.60;99.90
1996;DHT22;38556;47.068;15.408;2023-01-16T16:14:03;3.60;99.90
1996;DHT22;38556;47.068;15.408;2023-01-16T16:17:01;3.60;99.90
1996;DHT22;38556;47.068;15.408;2023-01-16T16:19:46;3.60;99.90
1996;DHT22;38556;47.068;15.408;2023-01-16T16:22:19;3.60;99.90
1996;DHT22;38556;47.068;15.408;2023-01-16T16:25:08;3.60;99.90
1996;DHT22;38556;47.068;15.408;2023-01-16T16:27:36;3.60;99.90
1996;DHT22;38556;47.068;15.408;2023-01-16T16:30:04;3.60;99.90
1996;DHT22;38556;47.068;15.408;2023-01-16T16:32:35;3.60;99.90
1996;DHT22;38556;47.068;15.408;2023-01-16T16:35:03;3.60;99.90
1996;DHT22;38556;47.068;15.408;2023-01-16T16:37:33;3.60;99.90
1996;DHT22;38556;47.068;15.408;2023-01-16T16:40:07;3.50;99.90
1996;DHT22;38556;47.068;15.408;2023-01-16T16:42:50;3.50;99.90
1996;DHT22;38556;47.068;15.408;2023-01-16T16:45:26;3.40;99.90
1996;DHT22;38556;47.068;15.408;2023-01-16T16:48:23;3.50;99.90
1996;DHT22;38556;47.068;15.408;2023-01-16T16:51:10;3.50;99.90
1996;DHT22;38556;47.068;15.408;2023-01-16T16:53:44;3.60;99.90
1996;DHT22;38556;47.068;15.408;2023-01-16T16:56:14;3.60;99.90
1996;DHT22;38556;47.068;15.408;2023-01-16T16:58:44;3.80;99.90
1996;DHT22;38556;47.068;15.408;2023-01-16T17:01:13;3.70;99.90
1996;DHT22;38556;47.068;15.408;2023-01-16T17:03:42;3.80;99.90
1996;DHT22;38556;47.068;15.408;2023-01-16T17:06:15;3.60;99.90
1996;DHT22;38556;47.068;15.408;2023-01-16T17:08:45;3.50;99.90
1996;DHT22;38556;47.068;15.408;2023-01-16T17:11:14;3.40;99.90
1996;DHT22;38556;47.068;15.408;2023-01-16T17:13:42;3.30;99.90